Terminal Aerodrome Forecast
Issued by NWS Cleveland, OH

Home | Current Version | Previous Version | Graphics & Text | Print | Product List | Glossary On
Versions: 1 2 3 4 5 6 7 8 9 10 11 12 13 14 15 16 17 18 19 20 21 22 23
900
FTUS41 KCLE 081011 AAE
TAFERI
TAF AMD
KERI 081011Z 0810/0906 21014G20KT P6SM OVC040
     FM081600 21015G25KT P6SM FEW250
     FM090000 21012KT P6SM SKC=

USA.gov is the U.S. government's official web portal to all federal, state and local government web resources and services.